This is the latest recevied weather packets stored in our database for station/object KD8DNO-13. If no packets are shown the sender has not sent any weather packets the latest 10 day(s).
| Time | Temp. | Humidity | Pressure | Rain* | Wind** | Luminosity | Snow |
|---|---|---|---|---|---|---|---|
| 1788307983 | 28.33° C | 75% | 1018.6 hPa | 0 mm | - | - | - |
| 1788307683 | 28.89° C | 74% | 1018.6 hPa | 0 mm | - | - | - |
| 1788307383 | 28.89° C | 73% | 1018.6 hPa | 0 mm | - | - | - |
| 1788307083 | 28.89° C | 73% | 1018.6 hPa | 0 mm | - | - | - |
| 1788306783 | 29.44° C | 72% | 1018.6 hPa | 0 mm | - | - | - |
| 1788306483 | 29.44° C | 71% | 1018.6 hPa | 0 mm | - | - | - |
| 1788306183 | 29.44° C | 72% | 1018.6 hPa | 0 mm | - | - | - |
| 1788305883 | 30° C | 70% | 1018.6 hPa | 0 mm | - | - | - |
| 1788305583 | 30° C | 71% | 1018.6 hPa | 0 mm | - | - | - |
| 1788305283 | 30° C | 70% | 1018.6 hPa | 0 mm | - | - | - |
| 1788304983 | 30° C | 71% | 1018.9 hPa | 0 mm | - | - | - |
| 1788304683 | 30.56° C | 70% | 1018.9 hPa | 0 mm | - | - | - |
| 1788304383 | 30° C | 71% | 1018.9 hPa | 0 mm | - | - | - |
| 1788304083 | 30° C | 73% | 1018.9 hPa | 0 mm | - | - | - |
| 1788303783 | 30° C | 75% | 1019.3 hPa | 0 mm | - | - | - |
| 1788303484 | 30.56° C | 70% | 1019.3 hPa | 0 mm | - | - | - |
| 1788303183 | 30.56° C | 69% | 1019.3 hPa | 0 mm | - | - | - |
| 1788302883 | 30.56° C | 71% | 1019.3 hPa | 0 mm | - | - | - |
| 1788302583 | 31.11° C | 67% | 1019.3 hPa | 0 mm | - | - | - |
| 1788302283 | 31.11° C | 67% | 1019.3 hPa | 0 mm | - | - | - |
| 1788301983 | 31.11° C | 69% | 1019.3 hPa | 0 mm | - | - | - |
| 1788301683 | 30.56° C | 71% | 1019.3 hPa | 0 mm | - | - | - |
| 1788301383 | 31.67° C | 66% | 1019.3 hPa | 0 mm | - | - | - |
| 1788301083 | 31.11° C | 67% | 1019.3 hPa | 0 mm | - | - | - |
| 1788300783 | 30.56° C | 70% | 1019.3 hPa | 0 mm | - | - | - |
* Rain latest hour (hover to see other rain measurements)
** Current wind speed in m/s (hover to see current wind gust speed)